Time;durP1;ratioP1;P1;durP2;ratioP2;P2;SDS_P1;SDS_P2;PMS_P1;PMS_P2;Temp;Humidity;BMP_temperature;BMP_pressure;BME280_temperature;BME280_humidity;BME280_pressure;Samples;Min_cycle;Max_cycle;Signal;HPM_P1;HPM_P2
2021/12/31 00:01:41;;;;;;;14.30;3.55;;;;;;;;;;5094409;28;20040;-61
2021/12/31 00:04:07;;;;;;;15.70;3.80;;;;;;;;;;5094870;28;20058;-60
2021/12/31 00:06:34;;;;;;;21.70;3.88;;;;;;;;;;5094678;28;20520;-60
2021/12/31 00:08:59;;;;;;;14.20;4.15;;;11.90;99.90;;;;;;5090687;28;20409;-61
2021/12/31 00:11:25;;;;;;;14.18;4.20;;;;;;;;;;5074499;28;20040;-60
2021/12/31 00:13:51;;;;;;;14.60;2.97;;;;;;;;;;5074152;28;20044;-60
2021/12/31 00:16:17;;;;;;;14.68;3.80;;;;;;;;;;5094177;28;20198;-60
2021/12/31 00:18:43;;;;;;;18.25;3.75;;;;;;;;;;5073567;28;20503;-61
2021/12/31 00:21:09;;;;;;;20.30;4.38;;;11.90;99.90;;;;;;5078904;28;20036;-61
2021/12/31 00:23:34;;;;;;;15.57;4.15;;;11.90;99.90;;;;;;5094995;28;20055;-60
2021/12/31 00:26:00;;;;;;;18.88;4.53;;;11.90;99.90;;;;;;5094468;28;20039;-60
2021/12/31 00:28:26;;;;;;;18.42;4.60;;;;;;;;;;5094475;28;20043;-60
2021/12/31 00:30:54;;;;;;;21.80;4.75;;;;;;;;;;5094784;28;20402;-61
2021/12/31 00:33:21;;;;;;;14.95;4.95;;;;;;;;;;5094457;28;20051;-60
2021/12/31 00:35:46;;;;;;;16.75;4.90;;;;;;;;;;5089124;28;20048;-61
2021/12/31 00:38:13;;;;;;;20.45;4.50;;;;;;;;;;5092228;28;20036;-60
2021/12/31 00:40:39;;;;;;;20.73;4.85;;;;;;;;;;5093609;28;20040;-60
2021/12/31 00:43:06;;;;;;;14.70;4.75;;;;;;;;;;5093894;28;20040;-60
2021/12/31 00:45:37;;;;;;;17.70;3.55;;;;;;;;;;5087989;28;20075;-60
2021/12/31 00:48:03;;;;;;;20.42;5.05;;;;;;;;;;5092943;28;20088;-60
2021/12/31 00:50:29;;;;;;;17.85;4.35;;;;;;;;;;5087449;28;20032;-60
2021/12/31 00:52:55;;;;;;;16.60;4.88;;;;;;;;;;5055809;28;20075;-60
2021/12/31 00:55:21;;;;;;;16.17;5.75;;;;;;;;;;5075084;28;20040;-60
2021/12/31 00:57:48;;;;;;;14.50;3.90;;;12.20;99.90;;;;;;5093294;28;20532;-60
2021/12/31 01:00:15;;;;;;;19.15;3.58;;;;;;;;;;5093095;28;20040;-61
2021/12/31 01:02:43;;;;;;;19.70;3.88;;;;;;;;;;5080408;28;20051;-60
2021/12/31 01:05:09;;;;;;;18.30;4.70;;;12.00;99.90;;;;;;5073430;28;20036;-62
2021/12/31 01:07:35;;;;;;;15.32;4.32;;;12.10;99.90;;;;;;5072673;28;20090;-62
2021/12/31 01:10:01;;;;;;;15.52;3.88;;;12.20;99.90;;;;;;5073099;28;20032;-60
2021/12/31 01:12:28;;;;;;;12.25;5.05;;;;;;;;;;5072972;28;20549;-62
2021/12/31 01:17:37;;;;;;;14.98;3.45;;;;;;;;;;5072751;28;20059;-62
2021/12/31 01:20:05;;;;;;;11.27;3.63;;;12.70;99.90;;;;;;5068398;28;20036;-62
2021/12/31 01:22:32;;;;;;;12.68;3.25;;;12.30;99.90;;;;;;5081380;28;20071;-62
2021/12/31 01:24:58;;;;;;;15.93;4.40;;;;;;;;;;5072878;28;20144;-62
2021/12/31 01:27:24;;;;;;;15.35;3.90;;;;;;;;;;5092102;28;20416;-62
2021/12/31 01:29:50;;;;;;;17.73;4.00;;;;;;;;;;5092631;28;20036;-62
2021/12/31 01:32:16;;;;;;;13.35;3.45;;;;;;;;;;5092652;28;20123;-62
2021/12/31 01:34:42;;;;;;;14.98;3.63;;;;;;;;;;5092370;28;20071;-62
2021/12/31 01:37:10;;;;;;;11.88;4.18;;;12.00;99.90;;;;;;5092640;28;20036;-62
2021/12/31 01:39:36;;;;;;;11.35;3.63;;;12.40;99.90;;;;;;5092306;28;20032;-62
2021/12/31 01:42:03;;;;;;;13.75;4.00;;;;;;;;;;5092208;28;20058;-62
2021/12/31 01:44:40;;;;;;;14.30;3.80;;;12.20;99.90;;;;;;5092458;28;20055;-62
2021/12/31 01:47:10;;;;;;;16.85;3.92;;;;;;;;;;5087901;28;20467;-62
2021/12/31 01:49:39;;;;;;;16.90;4.82;;;;;;;;;;5091017;28;20119;-62
2021/12/31 01:52:06;;;;;;;15.77;4.18;;;;;;;;;;5092906;28;20059;-62
2021/12/31 01:54:33;;;;;;;12.25;3.90;;;12.60;99.90;;;;;;5092201;28;20111;-62
2021/12/31 01:57:01;;;;;;;16.73;4.55;;;11.70;99.90;;;;;;5092598;28;20036;-61
2021/12/31 01:59:28;;;;;;;14.35;3.70;;;12.20;99.90;;;;;;5092696;28;20036;-62
2021/12/31 02:01:55;;;;;;;17.52;4.00;;;;;;;;;;5086654;28;20036;-62
2021/12/31 02:04:21;;;;;;;15.52;3.60;;;;;;;;;;5083932;28;20059;-62
2021/12/31 02:06:47;;;;;;;14.60;4.88;;;;;;;;;;5091756;28;20031;-61
2021/12/31 02:09:13;;;;;;;15.07;4.30;;;;;;;;;;5091596;28;20118;-62
2021/12/31 02:11:39;;;;;;;14.25;4.18;;;;;;;;;;5092184;28;20039;-62
2021/12/31 02:14:06;;;;;;;15.27;3.42;;;;;;;;;;5092314;28;20066;-62
2021/12/31 02:16:32;;;;;;;13.63;3.17;;;;;;;;;;5091425;28;20040;-62
2021/12/31 02:18:59;;;;;;;11.63;3.28;;;;;;;;;;5091626;28;20577;-62
2021/12/31 02:21:25;;;;;;;12.13;3.80;;;;;;;;;;5091559;28;20089;-62
2021/12/31 02:23:52;;;;;;;14.98;4.38;;;12.30;99.90;;;;;;5073774;28;20394;-62
2021/12/31 02:26:18;;;;;;;14.18;4.68;;;;;;;;;;5092136;28;20075;-62
2021/12/31 02:28:43;;;;;;;15.48;4.32;;;12.30;99.90;;;;;;5092604;28;20111;-62
2021/12/31 02:31:10;;;;;;;14.63;4.45;;;;;;;;;;5092569;28;20072;-62
2021/12/31 02:33:35;;;;;;;12.38;4.30;;;12.30;99.90;;;;;;5080028;28;20048;-62
2021/12/31 02:36:03;;;;;;;12.93;3.67;;;;;;;;;;5071330;28;20112;-62
2021/12/31 02:38:29;;;;;;;15.18;3.92;;;;;;;;;;5071858;28;20044;-62
2021/12/31 02:40:55;;;;;;;13.75;4.00;;;;;;;;;;5078117;28;20032;-62
2021/12/31 02:43:21;;;;;;;13.70;3.78;;;;;;;;;;5092296;28;20120;-62
2021/12/31 02:45:48;;;;;;;17.95;4.22;;;;;;;;;;5073702;28;20043;-62
2021/12/31 02:48:14;;;;;;;14.43;4.00;;;;;;;;;;5091873;28;20094;-62
2021/12/31 02:50:41;;;;;;;13.23;3.70;;;;;;;;;;5091173;28;20088;-62
2021/12/31 02:53:08;;;;;;;12.27;3.92;;;;;;;;;;5092366;28;20040;-61
2021/12/31 02:55:38;;;;;;;18.17;4.90;;;;;;;;;;5091430;28;20113;-62
2021/12/31 02:58:05;;;;;;;12.88;3.53;;;;;;;;;;5090063;28;20502;-62
2021/12/31 03:00:32;;;;;;;15.40;3.40;;;;;;;;;;5091391;28;20054;-62
2021/12/31 03:03:02;;;;;;;15.50;3.45;;;;;;;;;;5091433;28;20044;-62
2021/12/31 03:05:29;;;;;;;16.48;4.15;;;;;;;;;;5091032;28;20039;-62
2021/12/31 03:07:57;;;;;;;13.55;3.88;;;12.70;99.90;;;;;;5091631;28;20513;-62
2021/12/31 03:10:24;;;;;;;14.68;3.33;;;;;;;;;;5089552;28;20040;-62
2021/12/31 03:12:51;;;;;;;16.48;4.68;;;;;;;;;;5080189;28;20038;-62
2021/12/31 03:15:18;;;;;;;11.68;3.30;;;;;;;;;;5082579;28;20094;-62
2021/12/31 03:17:44;;;;;;;16.70;4.80;;;12.20;99.90;;;;;;5089415;28;20036;-61
2021/12/31 03:20:14;;;;;;;15.82;4.85;;;;;;;;;;5091121;28;20067;-61
2021/12/31 03:22:41;;;;;;;11.95;3.40;;;;;;;;;;5091358;28;20044;-61
2021/12/31 03:25:07;;;;;;;13.05;3.97;;;;;;;;;;5091137;28;20040;-62
2021/12/31 03:27:33;;;;;;;16.17;3.97;;;12.20;99.90;;;;;;5090969;28;20503;-62
2021/12/31 03:29:59;;;;;;;14.60;4.20;;;12.20;99.90;;;;;;5091800;28;20040;-61
2021/12/31 03:32:25;;;;;;;13.88;3.97;;;;;;;;;;5090921;28;20036;-62
2021/12/31 03:34:50;;;;;;;14.07;4.15;;;12.20;99.90;;;;;;5090615;28;20127;-62
2021/12/31 03:37:17;;;;;;;13.85;3.78;;;;;;;;;;5073330;28;20124;-62
2021/12/31 03:39:43;;;;;;;13.68;3.17;;;;;;;;;;5091221;28;20032;-61
2021/12/31 03:42:14;;;;;;;17.90;4.28;;;;;;;;;;5091286;28;20047;-61
2021/12/31 03:44:40;;;;;;;12.85;3.80;;;12.30;99.90;;;;;;5072929;28;20076;-61
2021/12/31 03:47:06;;;;;;;13.80;3.72;;;;;;;;;;5089290;28;20113;-62
2021/12/31 03:49:32;;;;;;;12.63;3.72;;;;;;;;;;5086783;28;20043;-62
2021/12/31 03:51:58;;;;;;;11.27;4.35;;;;;;;;;;5074323;28;20048;-61
2021/12/31 03:54:24;;;;;;;13.82;2.95;;;;;;;;;;5074150;28;20041;-61
2021/12/31 03:56:50;;;;;;;18.25;3.90;;;12.40;99.90;;;;;;5074346;28;20044;-60
2021/12/31 03:59:15;;;;;;;16.02;4.63;;;12.40;99.90;;;;;;5074137;28;20044;-62
2021/12/31 04:01:41;;;;;;;13.60;3.58;;;;;;;;;;5090121;28;20032;-62
2021/12/31 04:04:08;;;;;;;12.32;3.55;;;;;;;;;;5076511;28;20096;-62
2021/12/31 04:06:34;;;;;;;14.90;3.80;;;;;;;;;;5093990;28;20047;-62
2021/12/31 04:09:00;;;;;;;11.02;3.58;;;12.50;99.90;;;;;;5094560;28;20043;-61
2021/12/31 04:11:25;;;;;;;16.77;3.40;;;;;;;;;;5076012;28;20040;-60
2021/12/31 04:13:51;;;;;;;14.68;3.60;;;;;;;;;;5094326;28;20043;-61
2021/12/31 04:16:17;;;;;;;10.85;3.30;;;;;;;;;;5093423;28;20128;-61
2021/12/31 04:18:43;;;;;;;12.05;3.78;;;;;;;;;;5091304;28;20044;-61
2021/12/31 04:21:10;;;;;;;11.68;3.58;;;;;;;;;;5073850;28;20093;-61
2021/12/31 04:23:48;;;;;;;10.00;2.90;;;;;;;;;;5056049;28;20046;-61
2021/12/31 04:26:15;;;;;;;10.30;3.30;;;13.10;99.90;;;;;;5073439;28;20458;-61
2021/12/31 04:28:42;;;;;;;11.70;3.75;;;;;;;;;;5073299;28;20375;-61
2021/12/31 04:31:08;;;;;;;12.05;4.00;;;;;;;;;;5073736;28;20048;-61
2021/12/31 04:33:33;;;;;;;10.50;3.30;;;12.80;99.90;;;;;;5091282;28;20545;-61
2021/12/31 04:35:59;;;;;;;14.52;4.80;;;;;;;;;;5093390;28;20035;-61
2021/12/31 04:38:25;;;;;;;10.05;2.70;;;;;;;;;;5093596;28;20051;-61
2021/12/31 04:40:51;;;;;;;11.85;3.05;;;;;;;;;;5075224;28;20032;-61
2021/12/31 04:43:17;;;;;;;14.43;3.45;;;;;;;;;;5073315;28;20040;-61
2021/12/31 04:45:43;;;;;;;16.88;3.90;;;12.60;99.90;;;;;;5072600;28;20490;-61
2021/12/31 04:48:08;;;;;;;12.48;2.92;;;12.70;99.90;;;;;;5079638;28;20043;-61
2021/12/31 04:50:34;;;;;;;10.57;3.00;;;12.60;99.90;;;;;;5093225;28;20047;-61
2021/12/31 04:53:02;;;;;;;10.18;3.00;;;;;;;;;;5093509;28;20055;-61
2021/12/31 04:55:28;;;;;;;12.18;3.10;;;;;;;;;;5093697;28;20052;-61
2021/12/31 04:57:54;;;;;;;9.02;2.85;;;;;;;;;;5093712;28;20086;-61
2021/12/31 05:00:20;;;;;;;11.55;2.85;;;;;;;;;;5089211;28;20076;-61
2021/12/31 05:02:46;;;;;;;10.88;3.00;;;12.30;99.90;;;;;;5078986;28;20509;-61
2021/12/31 05:05:12;;;;;;;10.45;3.45;;;;;;;;;;5075101;28;20047;-61
2021/12/31 05:07:38;;;;;;;10.35;2.85;;;12.20;99.90;;;;;;5082317;28;20040;-61
2021/12/31 05:10:04;;;;;;;9.15;2.80;;;;;;;;;;5073047;28;20038;-61
2021/12/31 05:12:32;;;;;;;13.45;3.00;;;12.30;99.90;;;;;;5071119;28;20509;-61
2021/12/31 05:15:01;;;;;;;8.85;2.67;;;;;;;;;;5073461;28;20051;-61
2021/12/31 05:17:27;;;;;;;9.27;3.03;;;;;;;;;;5092888;28;20040;-61
2021/12/31 05:19:52;;;;;;;8.45;2.25;;;12.50;99.90;;;;;;5084578;28;20483;-60
2021/12/31 05:22:18;;;;;;;9.88;2.80;;;;;;;;;;5072932;28;20116;-61
2021/12/31 05:24:44;;;;;;;7.75;2.60;;;;;;;;;;5072441;28;20045;-60
2021/12/31 05:27:10;;;;;;;10.07;3.17;;;;;;;;;;5089733;28;20040;-61
2021/12/31 05:29:36;;;;;;;9.30;3.25;;;;;;;;;;5092937;28;20501;-61
2021/12/31 05:32:03;;;;;;;6.57;2.40;;;;;;;;;;5093399;28;20113;-62
2021/12/31 05:34:29;;;;;;;11.43;3.30;;;12.50;99.90;;;;;;5082223;28;20198;-61
2021/12/31 05:36:55;;;;;;;12.88;2.72;;;;;;;;;;5085537;28;20393;-61
2021/12/31 05:39:21;;;;;;;6.00;2.42;;;;;;;;;;5072732;28;20636;-64
2021/12/31 05:41:47;;;;;;;7.68;2.65;;;;;;;;;;5073855;28;20036;-61
2021/12/31 05:44:13;;;;;;;6.55;2.53;;;;;;;;;;5092760;28;20044;-62
2021/12/31 05:46:44;;;;;;;5.82;2.38;;;;;;;;;;5089716;28;20044;-61
2021/12/31 05:49:10;;;;;;;7.40;2.65;;;;;;;;;;5081163;28;20039;-61
2021/12/31 05:51:36;;;;;;;11.45;2.63;;;;;;;;;;5074471;28;20048;-60
2021/12/31 05:54:01;;;;;;;7.00;2.20;;;12.50;99.90;;;;;;5077651;28;20169;-60
2021/12/31 05:56:27;;;;;;;8.35;2.60;;;;;;;;;;5091810;28;20517;-62
2021/12/31 05:58:53;;;;;;;8.25;2.60;;;12.50;99.90;;;;;;5092393;28;20067;-62
2021/12/31 06:01:19;;;;;;;11.70;2.55;;;12.40;99.90;;;;;;5092385;28;20145;-61
2021/12/31 06:03:45;;;;;;;9.07;3.13;;;;;;;;;;5091683;28;20043;-61
2021/12/31 06:06:11;;;;;;;8.55;2.47;;;;;;;;;;5090895;28;20062;-62
2021/12/31 06:08:37;;;;;;;10.90;3.22;;;;;;;;;;5077621;28;20490;-61
2021/12/31 06:11:03;;;;;;;7.65;2.70;;;;;;;;;;5074091;28;20036;-62
2021/12/31 06:13:29;;;;;;;6.65;2.50;;;12.50;99.90;;;;;;5074181;28;20044;-62
2021/12/31 06:15:58;;;;;;;7.93;2.45;;;;;;;;;;5073620;28;20395;-61
2021/12/31 06:18:25;;;;;;;9.70;3.10;;;;;;;;;;5074328;28;20116;-61
2021/12/31 06:20:51;;;;;;;7.78;2.63;;;;;;;;;;5074718;28;20028;-61
2021/12/31 06:26:44;;;;;;;10.05;2.50;;;13.00;99.90;;;;;;5139766;22;20107;-92
2021/12/31 06:29:26;;;;;;;14.45;2.75;;;;;;;;;;4979192;28;20041;-91
2021/12/31 06:32:00;;;;;;;9.40;2.72;;;;;;;;;;4991634;28;20050;-90
2021/12/31 06:34:31;;;;;;;7.95;2.70;;;;;;;;;;5092519;28;20289;-89
2021/12/31 06:37:37;;;;;;;10.23;3.10;;;;;;;;;;5091171;28;20070;-90
2021/12/31 06:40:22;;;;;;;;;;;;;;;;;;;;;
2021/12/31 06:43:12;;;;;;;9.48;2.35;;;;;;;;;;5107210;28;20128;-90
2021/12/31 06:46:01;;;;;;;11.45;2.80;;;;;;;;;;5075318;28;20043;-90
2021/12/31 06:52:07;;;;;;;10.60;2.58;;;;;;;;;;5033787;28;20378;-89
2021/12/31 06:54:44;;;;;;;7.00;2.70;;;;;;;;;;5016613;28;20136;-90
2021/12/31 06:57:25;;;;;;;12.27;3.83;;;;;;;;;;5043036;28;20053;-90
2021/12/31 07:00:09;;;;;;;;;;;;;;;;;;;;;
2021/12/31 07:03:02;;;;;;;8.48;3.00;;;;;;;;;;5074032;28;20101;-89
2021/12/31 07:05:51;;;;;;;8.60;2.72;;;;;;;;;;5073441;28;20040;-90
2021/12/31 07:08:33;;;;;;;6.57;2.50;;;;;;;;;;5071676;28;20039;-89
2021/12/31 07:11:22;;;;;;;9.00;3.25;;;;;;;;;;5079850;28;20495;-89
2021/12/31 07:14:11;;;;;;;11.18;3.10;;;;;;;;;;5078566;28;20515;-89
2021/12/31 07:16:54;;;;;;;7.82;2.92;;;;;;;;;;5077571;28;20052;-88
2021/12/31 07:19:29;;;;;;;12.00;3.25;;;;;;;;;;5075095;28;20036;-89
2021/12/31 07:22:01;;;;;;;12.48;3.40;;;;;;;;;;5069172;28;20044;-90
2021/12/31 07:24:27;;;;;;;9.07;2.97;;;;;;;;;;5067900;28;20035;-89
2021/12/31 07:26:57;;;;;;;11.57;3.10;;;;;;;;;;5077141;28;20028;-90
2021/12/31 07:29:26;;;;;;;10.25;2.47;;;;;;;;;;5078463;28;20403;-90
2021/12/31 07:32:05;;;;;;;10.40;3.10;;;;;;;;;;5073970;28;20122;-90
2021/12/31 07:34:32;;;;;;;9.35;2.60;;;;;;;;;;5081114;28;20048;-90
2021/12/31 07:36:58;;;;;;;7.82;2.65;;;;;;;;;;5081480;28;20048;-90
2021/12/31 07:39:31;;;;;;;9.48;2.80;;;;;;;;;;5081320;28;20052;-90
2021/12/31 07:41:59;;;;;;;10.85;4.05;;;;;;;;;;5082059;28;20181;-89
2021/12/31 07:44:30;;;;;;;11.10;3.00;;;;;;;;;;5081784;28;20055;-89
2021/12/31 07:46:56;;;;;;;8.02;2.72;;;;;;;;;;5098163;28;20035;-90
2021/12/31 07:49:22;;;;;;;8.65;3.00;;;;;;;;;;5069502;28;20052;-91
2021/12/31 07:51:52;;;;;;;11.10;2.97;;;;;;;;;;5061742;28;20051;-89
2021/12/31 07:54:18;;;;;;;11.43;3.65;;;;;;;;;;5061214;28;20066;-90
2021/12/31 07:56:51;;;;;;;10.48;2.90;;;;;;;;;;5078827;28;20079;-88
2021/12/31 07:59:17;;;;;;;10.98;4.00;;;;;;;;;;5062156;28;20111;-90
2021/12/31 08:01:46;;;;;;;10.63;3.67;;;;;;;;;;5061704;28;20499;-89
2021/12/31 08:08:21;;;;;;;8.35;2.75;;;;;;;;;;5001345;28;20037;-89
2021/12/31 08:10:50;;;;;;;9.77;3.30;;;;;;;;;;5072318;28;20048;-90
2021/12/31 08:13:20;;;;;;;7.90;2.90;;;;;;;;;;5077330;28;20039;-90
2021/12/31 08:15:57;;;;;;;8.38;2.88;;;;;;;;;;5079576;28;20039;-89
2021/12/31 08:18:28;;;;;;;10.63;4.35;;;;;;;;;;5080537;28;20083;-88
2021/12/31 08:20:57;;;;;;;11.52;3.42;;;;;;;;;;5067871;28;20044;-90
2021/12/31 08:23:31;;;;;;;13.85;2.80;;;;;;;;;;5061492;28;20084;-89
2021/12/31 08:25:59;;;;;;;9.68;2.90;;;;;;;;;;5075087;28;20047;-89
2021/12/31 08:28:45;;;;;;;11.20;3.33;;;;;;;;;;5078147;28;20077;-89
2021/12/31 08:31:14;;;;;;;11.65;4.15;;;;;;;;;;5097016;28;20062;-90
2021/12/31 08:33:43;;;;;;;10.07;3.08;;;;;;;;;;5111404;28;20036;-91
2021/12/31 08:36:20;;;;;;;10.13;3.50;;;;;;;;;;5096482;28;20028;-89
2021/12/31 08:39:07;;;;;;;;;;;11.90;99.90;;;;;;5080385;28;20031;-90
2021/12/31 08:41:40;;;;;;;10.00;2.60;;;;;;;;;;5081626;28;19920;-90
2021/12/31 08:44:28;;;;;;;10.55;3.25;;;;;;;;;;5099721;28;20070;-90
2021/12/31 08:47:03;;;;;;;8.13;3.22;;;;;;;;;;5082752;28;20118;-90
2021/12/31 08:49:49;;;;;;;9.98;3.28;;;;;;;;;;5095518;28;20040;-90
2021/12/31 08:55:13;;;;;;;10.02;3.45;;;;;;;;;;5098286;28;20031;-89
2021/12/31 08:58:00;;;;;;;7.55;2.42;;;;;;;;;;5077072;28;20040;-90
2021/12/31 09:00:44;;;;;;;9.75;3.10;;;;;;;;;;5072088;28;20075;-91
2021/12/31 09:03:12;;;;;;;10.20;3.22;;;;;;;;;;5074214;28;20040;-88
2021/12/31 09:05:48;;;;;;;11.95;3.50;;;;;;;;;;5080569;28;20046;-88
2021/12/31 09:08:23;;;;;;;9.32;3.33;;;;;;;;;;5080920;28;20518;-90
2021/12/31 09:10:58;;;;;;;12.07;3.40;;;;;;;;;;5080162;28;20051;-90
2021/12/31 09:13:36;;;;;;;7.72;2.80;;;;;;;;;;5083420;28;20047;-87
2021/12/31 09:16:05;;;;;;;10.38;4.03;;;;;;;;;;5079164;28;20051;-89
2021/12/31 09:19:00;;;;;;;11.25;3.40;;;;;;;;;;5080473;28;20126;-90
2021/12/31 09:21:39;;;;;;;9.25;3.05;;;;;;;;;;5068685;28;20048;-89
2021/12/31 09:24:08;;;;;;;12.40;3.88;;;;;;;;;;5062016;28;20495;-89
2021/12/31 09:26:35;;;;;;;10.95;3.22;;;;;;;;;;5074435;28;20071;-89
2021/12/31 09:29:36;;;;;;;10.70;3.90;;;;;;;;;;5076359;28;20542;-91
2021/12/31 09:32:15;;;;;;;14.13;4.03;;;;;;;;;;5089593;28;20566;-91
2021/12/31 09:34:53;;;;;;;;;;;;;;;;;;;;;
2021/12/31 09:37:36;;;;;;;15.40;4.90;;;;;;;;;;5084531;28;20104;-89
2021/12/31 09:40:19;;;;;;;;;;;;;;;;;;;;;
2021/12/31 09:43:33;;;;;;;13.45;5.22;;;;;;;;;;5086612;28;20051;-91
2021/12/31 09:46:30;;;;;;;13.02;5.07;;;;;;;;;;5057762;28;20122;-89
2021/12/31 09:49:11;;;;;;;12.65;4.22;;;;;;;;;;5059495;28;20036;-91
2021/12/31 09:51:45;;;;;;;10.55;3.95;;;;;;;;;;5058653;28;20062;-89
2021/12/31 09:54:11;;;;;;;12.95;4.70;;;;;;;;;;5073301;28;20042;-87
2021/12/31 09:56:59;;;;;;;;;;;;;;;;;;;;;
2021/12/31 09:59:35;;;;;;;16.98;4.68;;;;;;;;;;5087402;28;20043;-90
2021/12/31 10:02:01;;;;;;;17.63;4.85;;;;;;;;;;5090314;28;20059;-89
2021/12/31 10:04:47;;;;;;;15.95;4.60;;;;;;;;;;5075633;28;20043;-89
2021/12/31 10:07:13;;;;;;;15.18;5.22;;;;;;;;;;5077940;28;20043;-89
2021/12/31 10:09:43;;;;;;;18.58;5.25;;;;;;;;;;5059769;28;20389;-90
2021/12/31 10:12:14;;;;;;;16.20;5.55;;;;;;;;;;5060874;28;20051;-88
2021/12/31 10:14:43;;;;;;;15.07;5.78;;;;;;;;;;5068885;28;20492;-89
2021/12/31 10:17:10;;;;;;;17.90;5.55;;;;;;;;;;5076674;28;20092;-89
2021/12/31 10:19:56;;;;;;;13.55;4.95;;;;;;;;;;5094161;28;20523;-89
2021/12/31 10:26:15;;;;;;;15.55;5.72;;;;;;;;;;5054277;28;20074;-91
2021/12/31 10:36:27;;;;;;;17.92;5.28;;;;;;;;;;4913254;29;20048;-89
2021/12/31 10:43:12;;;;;;;17.58;5.95;;;;;;;;;;4856912;29;20543;-91
2021/12/31 10:46:03;;;;;;;;;;;11.00;99.90;;;;;;4844143;29;20072;-90
2021/12/31 10:49:09;;;;;;;11.57;4.53;;;;;;;;;;4883618;29;19970;-91
2021/12/31 10:52:47;;;;;;;;;;;;;;;;;;;;;
2021/12/31 11:05:41;;;;;;;20.67;6.40;;;;;;;;;;5105347;22;20594;-58
2021/12/31 11:08:07;;;;;;;16.15;5.93;;;;;;;;;;5078730;28;20074;-58
2021/12/31 11:10:35;;;;;;;16.90;6.03;;;;;;;;;;5074911;28;20044;-59
2021/12/31 11:13:06;;;;;;;21.55;6.55;;;10.90;99.90;;;;;;5074737;28;20040;-57
2021/12/31 11:15:32;;;;;;;18.13;5.85;;;;;;;;;;5074170;28;20085;-59
2021/12/31 11:17:58;;;;;;;20.08;6.00;;;;;;;;;;5074319;28;20048;-58
2021/12/31 11:20:25;;;;;;;26.90;6.70;;;;;;;;;;5075843;28;20097;-57
2021/12/31 11:22:54;;;;;;;20.33;6.53;;;;;;;;;;5074488;28;20039;-58
2021/12/31 11:25:20;;;;;;;22.88;6.82;;;;;;;;;;5093789;28;20089;-57
2021/12/31 11:27:51;;;;;;;17.23;7.25;;;;;;;;;;5093697;28;20063;-59
2021/12/31 11:30:34;;;;;;;18.95;6.60;;;;;;;;;;5092693;28;20036;-59
2021/12/31 11:33:18;;;;;;;22.42;6.43;;;;;;;;;;5070251;28;20047;-58
2021/12/31 11:35:56;;;;;;;16.70;6.50;;;11.10;99.90;;;;;;5081273;28;20383;-58
2021/12/31 11:38:22;;;;;;;14.95;6.32;;;;;;;;;;5082745;28;20398;-58
2021/12/31 11:41:00;;;;;;;19.05;6.38;;;10.50;99.90;;;;;;5083716;28;20032;-58
2021/12/31 11:43:27;;;;;;;20.58;6.88;;;;;;;;;;5092652;28;20032;-58
2021/12/31 11:46:11;;;;;;;16.90;6.53;;;10.70;99.90;;;;;;5092429;28;21200;-57
2021/12/31 11:48:52;;;;;;;15.25;6.35;;;;;;;;;;5056808;28;20126;-59
2021/12/31 11:51:19;;;;;;;14.57;6.85;;;10.90;99.90;;;;;;5056021;28;20044;-59
2021/12/31 11:53:58;;;;;;;14.80;7.18;;;;;;;;;;5078499;28;20455;-59
2021/12/31 11:56:39;;;;;;;18.83;6.38;;;11.30;99.90;;;;;;5091339;28;20502;-58
2021/12/31 11:59:11;;;;;;;13.13;6.13;;;10.40;99.90;;;;;;5089128;28;20143;-58
2021/12/31 12:01:36;;;;;;;15.23;6.00;;;10.80;99.90;;;;;;5073629;28;20540;-58
2021/12/31 12:04:40;;;;;;;14.80;6.40;;;10.80;99.90;;;;;;5073741;28;20040;-59
2021/12/31 12:07:07;;;;;;;15.00;4.70;;;;;;;;;;5078418;28;20044;-59
2021/12/31 12:09:36;;;;;;;11.25;4.85;;;;;;;;;;5092999;28;20042;-58
2021/12/31 12:12:02;;;;;;;11.45;4.40;;;;;;;;;;5074974;28;20054;-59
2021/12/31 12:14:28;;;;;;;15.75;6.20;;;;;;;;;;5090567;28;20040;-58
2021/12/31 12:16:56;;;;;;;12.00;5.45;;;;;;;;;;5092380;28;20040;-59
2021/12/31 12:19:22;;;;;;;12.52;5.60;;;10.70;99.90;;;;;;5092479;28;20043;-58
2021/12/31 12:21:52;;;;;;;14.32;5.90;;;;;;;;;;5081724;28;20033;-57
2021/12/31 12:24:23;;;;;;;12.45;6.10;;;;;;;;;;5079080;28;20044;-59
2021/12/31 12:26:49;;;;;;;14.43;5.57;;;;;;;;;;5091131;28;20078;-59
2021/12/31 12:29:25;;;;;;;17.30;6.15;;;10.70;99.90;;;;;;5092258;28;20107;-58
2021/12/31 12:32:06;;;;;;;15.52;5.85;;;;;;;;;;5092084;28;20433;-57
2021/12/31 12:34:32;;;;;;;9.93;5.00;;;;;;;;;;5092416;28;20043;-59
2021/12/31 12:36:58;;;;;;;11.70;5.38;;;10.40;99.90;;;;;;5071012;28;20405;-58
2021/12/31 12:39:24;;;;;;;12.32;5.47;;;;;;;;;;5090653;28;20043;-59
2021/12/31 12:41:50;;;;;;;12.13;5.15;;;;;;;;;;5092424;28;20032;-58
2021/12/31 12:44:17;;;;;;;12.65;5.15;;;;;;;;;;5091930;28;20199;-58
2021/12/31 12:46:56;;;;;;;14.13;6.20;;;;;;;;;;5092239;28;20201;-58
2021/12/31 12:49:29;;;;;;;18.50;6.72;;;;;;;;;;5092956;28;20394;-60
2021/12/31 12:51:56;;;;;;;12.77;5.07;;;;;;;;;;5092159;28;20065;-59
2021/12/31 12:54:23;;;;;;;14.20;5.88;;;10.90;99.90;;;;;;5091933;28;20044;-58
2021/12/31 12:56:52;;;;;;;26.80;6.75;;;10.90;99.90;;;;;;5092063;28;20450;-58
2021/12/31 12:59:22;;;;;;;20.35;6.93;;;10.50;99.90;;;;;;5092470;28;20032;-59
2021/12/31 13:01:52;;;;;;;18.77;6.45;;;;;;;;;;5082809;28;20483;-58
2021/12/31 13:04:19;;;;;;;18.45;7.22;;;;;;;;;;5084068;28;20048;-58
2021/12/31 13:06:55;;;;;;;20.25;6.75;;;;;;;;;;5091035;28;20040;-58
2021/12/31 13:09:23;;;;;;;20.55;5.70;;;;;;;;;;5054357;28;20123;-58
2021/12/31 13:11:51;;;;;;;18.38;6.88;;;10.80;99.90;;;;;;5089436;28;20048;-58
2021/12/31 13:14:26;;;;;;;17.90;7.38;;;10.50;99.90;;;;;;5089203;28;20036;-59
2021/12/31 13:16:53;;;;;;;53.97;7.70;;;;;;;;;;5068304;28;20552;-59
2021/12/31 13:19:30;;;;;;;25.85;8.55;;;;;;;;;;5089526;28;20579;-58
2021/12/31 13:22:04;;;;;;;24.48;7.65;;;10.70;99.90;;;;;;5088648;28;20044;-58
2021/12/31 13:24:30;;;;;;;23.35;7.70;;;;;;;;;;5073166;28;20048;-58
2021/12/31 13:26:59;;;;;;;19.60;7.47;;;11.00;99.90;;;;;;5091658;28;20074;-59
2021/12/31 13:29:34;;;;;;;25.08;7.45;;;;;;;;;;5090475;28;20075;-58
2021/12/31 13:32:10;;;;;;;24.52;8.32;;;10.60;99.90;;;;;;5090832;28;20032;-58
2021/12/31 13:34:40;;;;;;;24.15;7.43;;;;;;;;;;5072916;28;20053;-59
2021/12/31 13:37:06;;;;;;;27.65;8.15;;;;;;;;;;5090920;28;20446;-58
2021/12/31 13:39:39;;;;;;;26.63;7.63;;;;;;;;;;5085759;28;20438;-59
2021/12/31 13:42:10;;;;;;;19.13;6.68;;;11.10;99.90;;;;;;5087812;28;20032;-59
2021/12/31 13:44:37;;;;;;;34.05;10.02;;;;;;;;;;5089535;28;20048;-59
2021/12/31 13:47:16;;;;;;;24.42;7.15;;;;;;;;;;5090236;28;20040;-58
2021/12/31 13:49:47;;;;;;;24.27;8.57;;;;;;;;;;5089612;28;20032;-59
2021/12/31 13:52:16;;;;;;;22.73;8.13;;;10.90;99.90;;;;;;5090955;28;20050;-59
2021/12/31 13:54:44;;;;;;;31.08;8.65;;;;;;;;;;5090506;28;20382;-59
2021/12/31 13:57:36;;;;;;;25.90;8.80;;;10.80;99.90;;;;;;5091237;28;20117;-58
2021/12/31 14:00:05;;;;;;;21.20;9.50;;;;;;;;;;5088234;28;20059;-60
2021/12/31 14:02:31;;;;;;;33.42;9.15;;;10.90;99.90;;;;;;5073316;28;20506;-59
2021/12/31 14:04:57;;;;;;;22.00;7.57;;;10.90;99.90;;;;;;5080325;28;20090;-59
2021/12/31 14:07:40;;;;;;;29.67;8.18;;;;;;;;;;5091130;28;20524;-59
2021/12/31 14:10:09;;;;;;;28.55;8.27;;;11.00;99.90;;;;;;5091167;28;20044;-59
2021/12/31 14:12:45;;;;;;;27.13;8.27;;;;;;;;;;5091401;28;20131;-59
2021/12/31 14:15:11;;;;;;;24.10;8.65;;;;;;;;;;5087591;28;20040;-59
2021/12/31 14:17:37;;;;;;;24.73;7.47;;;;;;;;;;5086955;28;20100;-59
2021/12/31 14:20:03;;;;;;;22.67;6.60;;;;;;;;;;5070473;28;20043;-59
2021/12/31 14:22:29;;;;;;;25.15;7.45;;;;;;;;;;5083296;28;20058;-59
2021/12/31 14:24:55;;;;;;;20.13;6.57;;;;;;;;;;5088982;28;20036;-60
2021/12/31 14:27:21;;;;;;;19.75;7.13;;;11.00;99.90;;;;;;5089862;28;20434;-59
2021/12/31 14:29:47;;;;;;;25.38;7.32;;;;;;;;;;5089765;28;20028;-59
2021/12/31 14:32:13;;;;;;;22.75;7.32;;;;;;;;;;5086382;28;20127;-59
2021/12/31 14:34:39;;;;;;;18.63;6.60;;;11.10;99.90;;;;;;5089325;28;20066;-59
2021/12/31 14:37:08;;;;;;;31.65;8.77;;;;;;;;;;5090226;28;20040;-60
2021/12/31 14:39:36;;;;;;;35.47;10.07;;;;;;;;;;5082236;28;20550;-59
2021/12/31 14:42:03;;;;;;;20.38;7.03;;;;;;;;;;5091103;28;20044;-59
2021/12/31 14:44:29;;;;;;;33.88;9.60;;;;;;;;;;5089142;28;20530;-59
2021/12/31 14:46:55;;;;;;;21.50;7.72;;;;;;;;;;5086951;28;20469;-58
2021/12/31 14:49:22;;;;;;;29.55;7.68;;;;;;;;;;5080637;28;20041;-59
2021/12/31 14:51:48;;;;;;;26.23;8.63;;;;;;;;;;5078127;28;20072;-59
2021/12/31 14:54:14;;;;;;;27.95;7.10;;;11.20;99.90;;;;;;5090805;28;20090;-59
2021/12/31 14:56:40;;;;;;;28.73;7.35;;;;;;;;;;5091092;28;20126;-59
2021/12/31 14:59:09;;;;;;;27.00;8.10;;;;;;;;;;5087244;28;20067;-59
2021/12/31 15:01:38;;;;;;;22.77;6.95;;;10.70;99.90;;;;;;5086328;28;20051;-59
2021/12/31 15:04:05;;;;;;;17.77;6.85;;;;;;;;;;5090125;28;20502;-59
2021/12/31 15:06:31;;;;;;;27.98;9.57;;;;;;;;;;5089074;28;20094;-60
2021/12/31 15:08:57;;;;;;;24.90;8.18;;;;;;;;;;5089898;28;20036;-60
2021/12/31 15:11:23;;;;;;;22.52;7.38;;;;;;;;;;5070429;28;20040;-59
2021/12/31 15:13:49;;;;;;;26.85;6.72;;;;;;;;;;5072686;28;20409;-60